Diane G — DIANEG — position and weather

sailwx.info

Track history (hours):
 
Tides and Currents Weather Stations Pressure Air Temp Water Temp Dewpoint Dewpoint Depression Visibility Wind Speed Wind Dir Waves Ship Positions

Diane G

Last reported at 2014-Oct-01 09:17 UTC. Time now 2014-Oct-01 10:16 UTC.
Position N 32°43' W 117°11'.

Length 35 m; draft 2.5 m.

Type: Military. MMSI: 369970281.

Date/timePositionNaut miles runAvg speedWind from/ knotsBaromVisibWave heightAir tempDewpointWater temp
2014-Oct-01 09:17N 32°43' W 117°11'0 0.0
2014-Oct-01 08:32N 32°43' W 117°11'0 0.0
2014-Oct-01 07:20N 32°43' W 117°11'0 0.0
2014-Oct-01 06:29N 32°43' W 117°11'0 0.0
2014-Oct-01 05:32N 32°43' W 117°11'0 0.0
2014-Oct-01 04:32N 32°43' W 117°11'0 0.0
2014-Oct-01 03:32N 32°43' W 117°11'0 0.0
2014-Oct-01 00:14N 32°43' W 117°11'0 0.0
2014-Sep-30 23:20N 32°43' W 117°11'0 0.0
2014-Sep-30 16:32N 32°43' W 117°11'0 0.0
2014-Sep-30 14:20N 32°43' W 117°11'0 0.0
2014-Sep-30 12:08N 32°43' W 117°11'0 0.0
2014-Sep-30 11:26N 32°43' W 117°11'0 0.0
2014-Sep-30 09:26N 32°43' W 117°11'0 0.1
2014-Sep-30 08:32N 32°43' W 117°11'0 0.0
2014-Sep-30 07:29N 32°43' W 117°11'0 0.0
2014-Sep-30 05:32N 32°43' W 117°11'0 0.0
2014-Sep-30 04:29N 32°43' W 117°11'0 0.0
2014-Sep-30 03:08N 32°43' W 117°11'0 0.0
2014-Sep-30 01:34N 32°43' W 117°11'3 2.7
2014-Sep-30 00:32N 32°41' W 117°14'7 7.2
2014-Sep-29 23:33N 32°35' W 117°18'6 0.9
2014-Sep-29 16:26N 32°39' W 117°25'2 2.5
2014-Sep-29 15:34N 32°38' W 117°23'11 0.3
2014-Sep-28 00:32N 32°43' W 117°11'0 0.0
2014-Sep-27 23:32N 32°43' W 117°11'0 0.0
2014-Sep-27 22:32N 32°43' W 117°11'0 0.0
2014-Sep-27 21:32N 32°43' W 117°11'0 0.0
2014-Sep-27 20:32N 32°43' W 117°11'0 0.0
2014-Sep-27 19:32N 32°43' W 117°11'0 0.0
2014-Sep-27 18:32N 32°43' W 117°11'0 0.0
2014-Sep-27 17:26N 32°43' W 117°11'0 0.0
2014-Sep-27 16:32N 32°43' W 117°11'0 0.0
2014-Sep-27 15:32N 32°43' W 117°11'0 0.0
2014-Sep-27 14:32N 32°43' W 117°11'0 0.0
2014-Sep-27 13:32N 32°43' W 117°11'0 0.0
2014-Sep-27 12:32N 32°43' W 117°11'0 0.0
2014-Sep-27 11:32N 32°43' W 117°11'0 0.0
2014-Sep-27 10:32N 32°43' W 117°11'0 0.0
2014-Sep-27 09:32N 32°43' W 117°11'0 0.0
2014-Sep-27 08:32N 32°43' W 117°11'0 0.0
2014-Sep-27 07:32N 32°43' W 117°11'0 0.0
2014-Sep-27 06:32N 32°43' W 117°11'0 0.0
2014-Sep-27 05:29N 32°43' W 117°11'0 0.0
2014-Sep-27 04:32N 32°43' W 117°11'0 0.0
2014-Sep-27 03:32N 32°43' W 117°11'0 0.0
2014-Sep-27 02:32N 32°43' W 117°11'0 0.0
2014-Sep-27 01:32N 32°43' W 117°11'0 0.0
2014-Sep-27 00:32N 32°43' W 117°11'0 0.0
2014-Sep-26 23:32N 32°43' W 117°11'0 0.0
2014-Sep-26 22:32N 32°43' W 117°11'0 0.0
2014-Sep-26 21:32N 32°43' W 117°11'0 0.0
2014-Sep-26 20:32N 32°43' W 117°11'0 0.0
2014-Sep-26 19:32N 32°43' W 117°11'0 0.0
2014-Sep-26 18:29N 32°43' W 117°11'0 0.0
2014-Sep-26 17:34N 32°43' W 117°11'3 2.7
2014-Sep-26 16:33N 32°42' W 117°14'0 0.0
2014-Sep-26 15:33N 32°42' W 117°14'1 0.7
2014-Sep-26 14:33N 32°41' W 117°14'4 4.2
2014-Sep-26 13:33N 32°38' W 117°17'6 5.6
2014-Sep-26 12:33N 32°42' W 117°22'9 8.7
2014-Sep-26 11:33N 32°46' W 117°31'8 8.3
2014-Sep-26 10:33N 32°51' W 117°39'8 7.7
2014-Sep-26 09:33N 32°55' W 117°47'8 7.9
2014-Sep-26 08:33N 32°59' W 117°55'8 8.0
2014-Sep-26 07:33N 33°04' W 118°03'8 8.1
2014-Sep-26 06:33N 33°08' W 118°11'8 7.5
2014-Sep-26 05:33N 33°12' W 118°18'73 1.5
2014-Sep-24 04:05N 34°09' W 119°13'0 0.3
2014-Sep-24 03:32N 34°09' W 119°13'9 9.1
2014-Sep-24 02:33N 34°01' W 119°17'21 2.9
2014-Sep-23 19:33N 33°47' W 119°35'17 7.9
2014-Sep-23 17:22N 34°00' W 119°22'  
Track history (hours):
 
Tides and Currents Weather Stations Pressure Air Temp Water Temp Dewpoint Dewpoint Depression Visibility Wind Speed Wind Dir Waves Ship Positions

Diane G

Last reported at 2014-Oct-01 09:17 UTC. Time now 2014-Oct-01 10:16 UTC.
Position N 32°43' W 117°11'.

Length 35 m; draft 2.5 m.

Type: Military. MMSI: 369970281.

Date/timePositionNaut miles runAvg speedWind from/ knotsBaromVisibWave heightAir tempDewpointWater temp
2014-Oct-01 09:17N 32°43' W 117°11'0 0.0
2014-Oct-01 08:32N 32°43' W 117°11'0 0.0
2014-Oct-01 07:20N 32°43' W 117°11'0 0.0
2014-Oct-01 06:29N 32°43' W 117°11'0 0.0
2014-Oct-01 05:32N 32°43' W 117°11'0 0.0
2014-Oct-01 04:32N 32°43' W 117°11'0 0.0
2014-Oct-01 03:32N 32°43' W 117°11'0 0.0
2014-Oct-01 00:14N 32°43' W 117°11'0 0.0
2014-Sep-30 23:20N 32°43' W 117°11'0 0.0
2014-Sep-30 16:32N 32°43' W 117°11'0 0.0
2014-Sep-30 14:20N 32°43' W 117°11'0 0.0
2014-Sep-30 12:08N 32°43' W 117°11'0 0.0
2014-Sep-30 11:26N 32°43' W 117°11'0 0.0
2014-Sep-30 09:26N 32°43' W 117°11'0 0.1
2014-Sep-30 08:32N 32°43' W 117°11'0 0.0
2014-Sep-30 07:29N 32°43' W 117°11'0 0.0
2014-Sep-30 05:32N 32°43' W 117°11'0 0.0
2014-Sep-30 04:29N 32°43' W 117°11'0 0.0
2014-Sep-30 03:08N 32°43' W 117°11'0 0.0
2014-Sep-30 01:34N 32°43' W 117°11'3 2.7
2014-Sep-30 00:32N 32°41' W 117°14'7 7.2
2014-Sep-29 23:33N 32°35' W 117°18'6 0.9
2014-Sep-29 16:26N 32°39' W 117°25'2 2.5
2014-Sep-29 15:34N 32°38' W 117°23'11 0.3
2014-Sep-28 00:32N 32°43' W 117°11'0 0.0
2014-Sep-27 23:32N 32°43' W 117°11'0 0.0
2014-Sep-27 22:32N 32°43' W 117°11'0 0.0
2014-Sep-27 21:32N 32°43' W 117°11'0 0.0
2014-Sep-27 20:32N 32°43' W 117°11'0 0.0
2014-Sep-27 19:32N 32°43' W 117°11'0 0.0
2014-Sep-27 18:32N 32°43' W 117°11'0 0.0
2014-Sep-27 17:26N 32°43' W 117°11'0 0.0
2014-Sep-27 16:32N 32°43' W 117°11'0 0.0
2014-Sep-27 15:32N 32°43' W 117°11'0 0.0
2014-Sep-27 14:32N 32°43' W 117°11'0 0.0
2014-Sep-27 13:32N 32°43' W 117°11'0 0.0
2014-Sep-27 12:32N 32°43' W 117°11'0 0.0
2014-Sep-27 11:32N 32°43' W 117°11'0 0.0
2014-Sep-27 10:32N 32°43' W 117°11'0 0.0
2014-Sep-27 09:32N 32°43' W 117°11'0 0.0
2014-Sep-27 08:32N 32°43' W 117°11'0 0.0
2014-Sep-27 07:32N 32°43' W 117°11'0 0.0
2014-Sep-27 06:32N 32°43' W 117°11'0 0.0
2014-Sep-27 05:29N 32°43' W 117°11'0 0.0
2014-Sep-27 04:32N 32°43' W 117°11'0 0.0
2014-Sep-27 03:32N 32°43' W 117°11'0 0.0
2014-Sep-27 02:32N 32°43' W 117°11'0 0.0
2014-Sep-27 01:32N 32°43' W 117°11'0 0.0
2014-Sep-27 00:32N 32°43' W 117°11'0 0.0
2014-Sep-26 23:32N 32°43' W 117°11'0 0.0
2014-Sep-26 22:32N 32°43' W 117°11'0 0.0
2014-Sep-26 21:32N 32°43' W 117°11'0 0.0
2014-Sep-26 20:32N 32°43' W 117°11'0 0.0
2014-Sep-26 19:32N 32°43' W 117°11'0 0.0
2014-Sep-26 18:29N 32°43' W 117°11'0 0.0
2014-Sep-26 17:34N 32°43' W 117°11'3 2.7
2014-Sep-26 16:33N 32°42' W 117°14'0 0.0
2014-Sep-26 15:33N 32°42' W 117°14'1 0.7
2014-Sep-26 14:33N 32°41' W 117°14'4 4.2
2014-Sep-26 13:33N 32°38' W 117°17'6 5.6
2014-Sep-26 12:33N 32°42' W 117°22'9 8.7
2014-Sep-26 11:33N 32°46' W 117°31'8 8.3
2014-Sep-26 10:33N 32°51' W 117°39'8 7.7
2014-Sep-26 09:33N 32°55' W 117°47'8 7.9
2014-Sep-26 08:33N 32°59' W 117°55'8 8.0
2014-Sep-26 07:33N 33°04' W 118°03'8 8.1
2014-Sep-26 06:33N 33°08' W 118°11'8 7.5
2014-Sep-26 05:33N 33°12' W 118°18'73 1.5
2014-Sep-24 04:05N 34°09' W 119°13'0 0.3
2014-Sep-24 03:32N 34°09' W 119°13'9 9.1
2014-Sep-24 02:33N 34°01' W 119°17'21 2.9
2014-Sep-23 19:33N 33°47' W 119°35'17 7.9
2014-Sep-23 17:22N 34°00' W 119°22'  

Dump ship's entire track history